sensor_id;sensor_type;location;lat;lon;timestamp;P1;durP1;ratioP1;P2;durP2;ratioP2
51925;SDS011;37952;51.938;15.480;2023-08-21T00:00:03;5.50;;;5.10;;
51925;SDS011;37952;51.938;15.480;2023-08-21T00:03:06;5.50;;;5.10;;
51925;SDS011;37952;51.938;15.480;2023-08-21T00:06:10;6.10;;;5.60;;
51925;SDS011;37952;51.938;15.480;2023-08-21T00:09:16;5.40;;;5.20;;
51925;SDS011;37952;51.938;15.480;2023-08-21T00:12:19;5.20;;;4.90;;
51925;SDS011;37952;51.938;15.480;2023-08-21T00:15:22;5.60;;;5.30;;
51925;SDS011;37952;51.938;15.480;2023-08-21T00:18:24;4.80;;;4.50;;
51925;SDS011;37952;51.938;15.480;2023-08-21T00:21:27;4.90;;;4.50;;
51925;SDS011;37952;51.938;15.480;2023-08-21T00:24:30;5.10;;;4.80;;
51925;SDS011;37952;51.938;15.480;2023-08-21T00:27:33;5.10;;;4.80;;
51925;SDS011;37952;51.938;15.480;2023-08-21T00:30:35;5.10;;;4.90;;
51925;SDS011;37952;51.938;15.480;2023-08-21T00:33:38;5.30;;;4.30;;
51925;SDS011;37952;51.938;15.480;2023-08-21T00:36:41;4.70;;;4.40;;
51925;SDS011;37952;51.938;15.480;2023-08-21T00:39:44;5.00;;;4.80;;
51925;SDS011;37952;51.938;15.480;2023-08-21T00:42:46;4.50;;;4.30;;
51925;SDS011;37952;51.938;15.480;2023-08-21T00:45:49;4.70;;;4.40;;
51925;SDS011;37952;51.938;15.480;2023-08-21T00:48:53;4.50;;;4.00;;
51925;SDS011;37952;51.938;15.480;2023-08-21T00:51:56;4.40;;;4.10;;
51925;SDS011;37952;51.938;15.480;2023-08-21T00:54:59;3.70;;;3.50;;
51925;SDS011;37952;51.938;15.480;2023-08-21T00:58:02;3.80;;;3.60;;
51925;SDS011;37952;51.938;15.480;2023-08-21T01:01:06;4.00;;;3.60;;
51925;SDS011;37952;51.938;15.480;2023-08-21T01:04:09;4.20;;;4.00;;
51925;SDS011;37952;51.938;15.480;2023-08-21T01:07:13;4.20;;;3.90;;
51925;SDS011;37952;51.938;15.480;2023-08-21T01:10:20;3.40;;;3.20;;
51925;SDS011;37952;51.938;15.480;2023-08-21T01:13:43;4.00;;;3.70;;
51925;SDS011;37952;51.938;15.480;2023-08-21T01:17:05;3.80;;;3.50;;
51925;SDS011;37952;51.938;15.480;2023-08-21T01:20:16;3.00;;;2.90;;
51925;SDS011;37952;51.938;15.480;2023-08-21T01:26:51;2.40;;;2.20;;
51925;SDS011;37952;51.938;15.480;2023-08-21T01:29:54;1.90;;;1.70;;
51925;SDS011;37952;51.938;15.480;2023-08-21T01:33:08;2.10;;;1.90;;
51925;SDS011;37952;51.938;15.480;2023-08-21T01:36:15;2.00;;;1.90;;
51925;SDS011;37952;51.938;15.480;2023-08-21T01:39:19;1.90;;;1.50;;
51925;SDS011;37952;51.938;15.480;2023-08-21T01:42:22;1.60;;;1.50;;
51925;SDS011;37952;51.938;15.480;2023-08-21T01:45:25;1.80;;;1.70;;
51925;SDS011;37952;51.938;15.480;2023-08-21T01:48:28;4.60;;;1.80;;
51925;SDS011;37952;51.938;15.480;2023-08-21T01:51:31;4.20;;;2.00;;
51925;SDS011;37952;51.938;15.480;2023-08-21T01:54:35;2.10;;;1.50;;
51925;SDS011;37952;51.938;15.480;2023-08-21T01:57:38;1.50;;;1.40;;
51925;SDS011;37952;51.938;15.480;2023-08-21T02:00:41;3.10;;;1.90;;
51925;SDS011;37952;51.938;15.480;2023-08-21T02:03:44;2.60;;;2.00;;
51925;SDS011;37952;51.938;15.480;2023-08-21T02:06:48;2.00;;;1.90;;
51925;SDS011;37952;51.938;15.480;2023-08-21T02:09:50;2.20;;;2.10;;
51925;SDS011;37952;51.938;15.480;2023-08-21T02:12:53;1.80;;;1.70;;
51925;SDS011;37952;51.938;15.480;2023-08-21T02:15:56;1.70;;;1.60;;
51925;SDS011;37952;51.938;15.480;2023-08-21T02:18:59;1.90;;;1.80;;
51925;SDS011;37952;51.938;15.480;2023-08-21T02:22:02;2.00;;;1.90;;
51925;SDS011;37952;51.938;15.480;2023-08-21T02:25:05;1.80;;;1.70;;
51925;SDS011;37952;51.938;15.480;2023-08-21T02:28:08;2.00;;;1.90;;
51925;SDS011;37952;51.938;15.480;2023-08-21T02:31:11;2.00;;;1.90;;
51925;SDS011;37952;51.938;15.480;2023-08-21T02:34:14;1.90;;;1.80;;
51925;SDS011;37952;51.938;15.480;2023-08-21T02:37:17;2.90;;;2.40;;
51925;SDS011;37952;51.938;15.480;2023-08-21T02:40:20;2.20;;;2.10;;
51925;SDS011;37952;51.938;15.480;2023-08-21T02:43:23;2.50;;;2.30;;
51925;SDS011;37952;51.938;15.480;2023-08-21T02:46:25;2.50;;;2.30;;
51925;SDS011;37952;51.938;15.480;2023-08-21T02:49:28;2.40;;;2.20;;
51925;SDS011;37952;51.938;15.480;2023-08-21T02:52:31;2.50;;;2.40;;
51925;SDS011;37952;51.938;15.480;2023-08-21T02:55:35;2.70;;;2.60;;
51925;SDS011;37952;51.938;15.480;2023-08-21T02:58:38;3.40;;;2.40;;
51925;SDS011;37952;51.938;15.480;2023-08-21T03:01:41;2.70;;;2.60;;
51925;SDS011;37952;51.938;15.480;2023-08-21T03:04:44;4.10;;;2.70;;
51925;SDS011;37952;51.938;15.480;2023-08-21T03:07:47;2.30;;;2.10;;
51925;SDS011;37952;51.938;15.480;2023-08-21T03:10:50;2.30;;;2.20;;
51925;SDS011;37952;51.938;15.480;2023-08-21T03:13:52;2.60;;;2.50;;
51925;SDS011;37952;51.938;15.480;2023-08-21T03:16:56;4.90;;;2.40;;
51925;SDS011;37952;51.938;15.480;2023-08-21T03:20:04;2.20;;;2.10;;
51925;SDS011;37952;51.938;15.480;2023-08-21T03:23:07;2.30;;;2.20;;
51925;SDS011;37952;51.938;15.480;2023-08-21T03:26:10;1.90;;;1.80;;
51925;SDS011;37952;51.938;15.480;2023-08-21T03:29:13;2.60;;;1.80;;
51925;SDS011;37952;51.938;15.480;2023-08-21T03:32:16;2.00;;;1.80;;
51925;SDS011;37952;51.938;15.480;2023-08-21T03:35:19;4.10;;;1.70;;
51925;SDS011;37952;51.938;15.480;2023-08-21T03:38:22;2.10;;;2.00;;
51925;SDS011;37952;51.938;15.480;2023-08-21T03:41:25;2.10;;;1.80;;
51925;SDS011;37952;51.938;15.480;2023-08-21T03:44:28;2.00;;;1.90;;
51925;SDS011;37952;51.938;15.480;2023-08-21T03:47:31;1.80;;;1.70;;
51925;SDS011;37952;51.938;15.480;2023-08-21T03:50:34;2.00;;;1.80;;
51925;SDS011;37952;51.938;15.480;2023-08-21T03:53:37;2.40;;;2.20;;
51925;SDS011;37952;51.938;15.480;2023-08-21T03:56:40;2.00;;;1.90;;
51925;SDS011;37952;51.938;15.480;2023-08-21T03:59:43;2.30;;;2.20;;
51925;SDS011;37952;51.938;15.480;2023-08-21T04:02:46;2.60;;;2.30;;
51925;SDS011;37952;51.938;15.480;2023-08-21T04:05:49;2.30;;;2.10;;
51925;SDS011;37952;51.938;15.480;2023-08-21T04:08:51;2.00;;;1.90;;
51925;SDS011;37952;51.938;15.480;2023-08-21T04:11:54;1.90;;;1.80;;
51925;SDS011;37952;51.938;15.480;2023-08-21T04:14:57;2.30;;;2.10;;
51925;SDS011;37952;51.938;15.480;2023-08-21T04:18:00;2.20;;;2.10;;
51925;SDS011;37952;51.938;15.480;2023-08-21T04:21:03;2.10;;;1.90;;
51925;SDS011;37952;51.938;15.480;2023-08-21T04:24:06;2.20;;;2.00;;
51925;SDS011;37952;51.938;15.480;2023-08-21T04:27:09;3.80;;;1.90;;
51925;SDS011;37952;51.938;15.480;2023-08-21T04:30:12;1.90;;;1.80;;
51925;SDS011;37952;51.938;15.480;2023-08-21T04:33:15;2.30;;;2.20;;
51925;SDS011;37952;51.938;15.480;2023-08-21T04:36:18;2.10;;;2.00;;
51925;SDS011;37952;51.938;15.480;2023-08-21T04:39:21;2.50;;;2.10;;
51925;SDS011;37952;51.938;15.480;2023-08-21T04:42:23;3.20;;;2.10;;
51925;SDS011;37952;51.938;15.480;2023-08-21T04:45:26;2.40;;;2.20;;
51925;SDS011;37952;51.938;15.480;2023-08-21T04:48:29;9.40;;;1.90;;
51925;SDS011;37952;51.938;15.480;2023-08-21T04:51:32;2.10;;;1.80;;
51925;SDS011;37952;51.938;15.480;2023-08-21T04:54:35;1.90;;;1.80;;
51925;SDS011;37952;51.938;15.480;2023-08-21T04:57:38;1.70;;;1.60;;
51925;SDS011;37952;51.938;15.480;2023-08-21T05:00:40;3.00;;;1.90;;
51925;SDS011;37952;51.938;15.480;2023-08-21T05:03:43;1.80;;;1.70;;
51925;SDS011;37952;51.938;15.480;2023-08-21T05:06:46;1.80;;;1.80;;
51925;SDS011;37952;51.938;15.480;2023-08-21T05:09:49;1.90;;;1.80;;
51925;SDS011;37952;51.938;15.480;2023-08-21T05:12:52;2.10;;;2.00;;
51925;SDS011;37952;51.938;15.480;2023-08-21T05:15:55;1.80;;;1.70;;
51925;SDS011;37952;51.938;15.480;2023-08-21T05:18:59;4.60;;;2.10;;
51925;SDS011;37952;51.938;15.480;2023-08-21T05:22:02;2.10;;;2.00;;
51925;SDS011;37952;51.938;15.480;2023-08-21T05:25:05;2.60;;;2.00;;
51925;SDS011;37952;51.938;15.480;2023-08-21T05:28:08;2.20;;;2.10;;
51925;SDS011;37952;51.938;15.480;2023-08-21T05:31:12;2.10;;;2.00;;
51925;SDS011;37952;51.938;15.480;2023-08-21T05:34:15;3.00;;;1.80;;
51925;SDS011;37952;51.938;15.480;2023-08-21T05:37:17;2.00;;;1.80;;
51925;SDS011;37952;51.938;15.480;2023-08-21T05:40:20;2.60;;;2.10;;
51925;SDS011;37952;51.938;15.480;2023-08-21T05:43:23;1.90;;;1.80;;
51925;SDS011;37952;51.938;15.480;2023-08-21T05:46:26;1.90;;;1.80;;
51925;SDS011;37952;51.938;15.480;2023-08-21T05:49:29;2.20;;;2.10;;
51925;SDS011;37952;51.938;15.480;2023-08-21T05:52:32;2.50;;;2.10;;
51925;SDS011;37952;51.938;15.480;2023-08-21T05:55:38;4.90;;;2.20;;
51925;SDS011;37952;51.938;15.480;2023-08-21T05:58:41;2.30;;;2.20;;
51925;SDS011;37952;51.938;15.480;2023-08-21T06:01:44;2.10;;;2.00;;
51925;SDS011;37952;51.938;15.480;2023-08-21T06:04:46;2.50;;;1.90;;
51925;SDS011;37952;51.938;15.480;2023-08-21T06:07:49;2.00;;;1.90;;
51925;SDS011;37952;51.938;15.480;2023-08-21T06:10:52;2.00;;;1.90;;
51925;SDS011;37952;51.938;15.480;2023-08-21T06:13:55;2.20;;;2.10;;
51925;SDS011;37952;51.938;15.480;2023-08-21T06:17:03;5.10;;;2.20;;
51925;SDS011;37952;51.938;15.480;2023-08-21T06:20:08;3.90;;;2.00;;
51925;SDS011;37952;51.938;15.480;2023-08-21T06:23:11;2.80;;;2.40;;
51925;SDS011;37952;51.938;15.480;2023-08-21T06:26:14;2.20;;;2.10;;
51925;SDS011;37952;51.938;15.480;2023-08-21T06:29:17;3.50;;;2.30;;
51925;SDS011;37952;51.938;15.480;2023-08-21T06:32:21;2.50;;;2.30;;
51925;SDS011;37952;51.938;15.480;2023-08-21T06:35:24;2.10;;;2.00;;
51925;SDS011;37952;51.938;15.480;2023-08-21T06:38:27;2.30;;;2.20;;
51925;SDS011;37952;51.938;15.480;2023-08-21T06:41:30;2.80;;;2.30;;
51925;SDS011;37952;51.938;15.480;2023-08-21T06:44:33;3.60;;;2.60;;
51925;SDS011;37952;51.938;15.480;2023-08-21T06:47:36;2.60;;;2.50;;
51925;SDS011;37952;51.938;15.480;2023-08-21T06:50:39;2.80;;;2.40;;
51925;SDS011;37952;51.938;15.480;2023-08-21T06:53:42;2.60;;;2.40;;
51925;SDS011;37952;51.938;15.480;2023-08-21T06:56:44;4.30;;;2.80;;
51925;SDS011;37952;51.938;15.480;2023-08-21T06:59:47;2.80;;;2.60;;
51925;SDS011;37952;51.938;15.480;2023-08-21T07:02:50;2.70;;;2.50;;
51925;SDS011;37952;51.938;15.480;2023-08-21T07:05:56;3.30;;;2.40;;
51925;SDS011;37952;51.938;15.480;2023-08-21T07:09:00;2.40;;;2.30;;
51925;SDS011;37952;51.938;15.480;2023-08-21T07:12:04;2.60;;;2.40;;
51925;SDS011;37952;51.938;15.480;2023-08-21T07:15:07;3.60;;;2.70;;
51925;SDS011;37952;51.938;15.480;2023-08-21T07:18:11;2.80;;;2.60;;
51925;SDS011;37952;51.938;15.480;2023-08-21T07:21:13;2.80;;;2.60;;
51925;SDS011;37952;51.938;15.480;2023-08-21T07:24:34;2.60;;;2.40;;
51925;SDS011;37952;51.938;15.480;2023-08-21T07:27:36;2.50;;;2.40;;
51925;SDS011;37952;51.938;15.480;2023-08-21T07:30:39;3.10;;;2.90;;
51925;SDS011;37952;51.938;15.480;2023-08-21T07:33:42;2.50;;;2.40;;
51925;SDS011;37952;51.938;15.480;2023-08-21T07:36:45;2.80;;;2.60;;
51925;SDS011;37952;51.938;15.480;2023-08-21T07:39:48;2.80;;;2.60;;
51925;SDS011;37952;51.938;15.480;2023-08-21T07:42:51;2.50;;;2.30;;
51925;SDS011;37952;51.938;15.480;2023-08-21T07:45:54;2.10;;;2.00;;
51925;SDS011;37952;51.938;15.480;2023-08-21T07:48:57;1.90;;;1.80;;
51925;SDS011;37952;51.938;15.480;2023-08-21T07:52:00;2.50;;;2.30;;
51925;SDS011;37952;51.938;15.480;2023-08-21T07:55:03;2.30;;;2.00;;
51925;SDS011;37952;51.938;15.480;2023-08-21T07:58:06;2.50;;;2.30;;
51925;SDS011;37952;51.938;15.480;2023-08-21T08:01:09;3.00;;;2.60;;
51925;SDS011;37952;51.938;15.480;2023-08-21T08:04:12;5.80;;;2.30;;
51925;SDS011;37952;51.938;15.480;2023-08-21T08:07:15;2.10;;;1.90;;
51925;SDS011;37952;51.938;15.480;2023-08-21T08:10:17;2.70;;;2.10;;
51925;SDS011;37952;51.938;15.480;2023-08-21T08:13:20;6.20;;;2.20;;
51925;SDS011;37952;51.938;15.480;2023-08-21T08:16:23;2.40;;;2.20;;
51925;SDS011;37952;51.938;15.480;2023-08-21T08:19:27;2.00;;;1.80;;
51925;SDS011;37952;51.938;15.480;2023-08-21T08:22:30;1.90;;;1.80;;
51925;SDS011;37952;51.938;15.480;2023-08-21T08:25:33;1.90;;;1.80;;
51925;SDS011;37952;51.938;15.480;2023-08-21T08:28:36;2.10;;;1.70;;
51925;SDS011;37952;51.938;15.480;2023-08-21T08:31:39;4.70;;;1.90;;
51925;SDS011;37952;51.938;15.480;2023-08-21T08:34:41;2.20;;;1.60;;
51925;SDS011;37952;51.938;15.480;2023-08-21T08:37:44;2.40;;;1.50;;
51925;SDS011;37952;51.938;15.480;2023-08-21T08:40:47;2.40;;;1.50;;
51925;SDS011;37952;51.938;15.480;2023-08-21T08:43:52;2.60;;;1.80;;
51925;SDS011;37952;51.938;15.480;2023-08-21T08:46:59;2.20;;;1.80;;
51925;SDS011;37952;51.938;15.480;2023-08-21T08:50:03;2.10;;;1.40;;
51925;SDS011;37952;51.938;15.480;2023-08-21T08:53:08;1.60;;;1.50;;
51925;SDS011;37952;51.938;15.480;2023-08-21T08:56:19;1.60;;;1.50;;
51925;SDS011;37952;51.938;15.480;2023-08-21T08:59:22;2.40;;;1.70;;
51925;SDS011;37952;51.938;15.480;2023-08-21T09:02:25;1.60;;;1.50;;
51925;SDS011;37952;51.938;15.480;2023-08-21T09:05:32;1.80;;;1.60;;
51925;SDS011;37952;51.938;15.480;2023-08-21T09:08:36;4.10;;;1.30;;
51925;SDS011;37952;51.938;15.480;2023-08-21T09:11:43;1.90;;;1.50;;
51925;SDS011;37952;51.938;15.480;2023-08-21T09:14:47;4.40;;;1.50;;
51925;SDS011;37952;51.938;15.480;2023-08-21T09:17:52;1.30;;;1.20;;
51925;SDS011;37952;51.938;15.480;2023-08-21T09:20:57;2.80;;;1.50;;
51925;SDS011;37952;51.938;15.480;2023-08-21T09:24:00;1.80;;;1.30;;
51925;SDS011;37952;51.938;15.480;2023-08-21T09:27:13;1.70;;;1.50;;
51925;SDS011;37952;51.938;15.480;2023-08-21T09:30:18;1.30;;;1.20;;
51925;SDS011;37952;51.938;15.480;2023-08-21T09:33:22;2.10;;;1.40;;
51925;SDS011;37952;51.938;15.480;2023-08-21T09:36:27;1.40;;;1.30;;
51925;SDS011;37952;51.938;15.480;2023-08-21T09:39:34;3.30;;;1.30;;
51925;SDS011;37952;51.938;15.480;2023-08-21T09:42:41;1.80;;;1.70;;
51925;SDS011;37952;51.938;15.480;2023-08-21T09:45:47;3.90;;;1.50;;
51925;SDS011;37952;51.938;15.480;2023-08-21T09:48:52;2.10;;;1.60;;
51925;SDS011;37952;51.938;15.480;2023-08-21T09:51:55;2.70;;;1.50;;
51925;SDS011;37952;51.938;15.480;2023-08-21T09:54:59;1.80;;;1.60;;
51925;SDS011;37952;51.938;15.480;2023-08-21T09:58:05;1.50;;;1.40;;
51925;SDS011;37952;51.938;15.480;2023-08-21T10:01:09;2.10;;;1.60;;
51925;SDS011;37952;51.938;15.480;2023-08-21T10:04:16;1.90;;;1.70;;
51925;SDS011;37952;51.938;15.480;2023-08-21T10:07:20;3.10;;;1.70;;
51925;SDS011;37952;51.938;15.480;2023-08-21T10:10:28;1.50;;;1.40;;
51925;SDS011;37952;51.938;15.480;2023-08-21T10:13:32;2.40;;;2.30;;
51925;SDS011;37952;51.938;15.480;2023-08-21T10:16:37;2.00;;;1.90;;
51925;SDS011;37952;51.938;15.480;2023-08-21T10:19:39;2.20;;;2.00;;
51925;SDS011;37952;51.938;15.480;2023-08-21T10:22:43;2.00;;;1.90;;
51925;SDS011;37952;51.938;15.480;2023-08-21T10:25:47;2.10;;;1.90;;
51925;SDS011;37952;51.938;15.480;2023-08-21T10:28:51;2.30;;;2.10;;
51925;SDS011;37952;51.938;15.480;2023-08-21T10:31:59;2.10;;;2.00;;
51925;SDS011;37952;51.938;15.480;2023-08-21T10:35:08;3.40;;;2.10;;
51925;SDS011;37952;51.938;15.480;2023-08-21T10:38:18;2.40;;;2.10;;
51925;SDS011;37952;51.938;15.480;2023-08-21T10:41:22;3.30;;;1.90;;
51925;SDS011;37952;51.938;15.480;2023-08-21T10:47:44;2.00;;;1.90;;
51925;SDS011;37952;51.938;15.480;2023-08-21T10:50:49;2.50;;;2.40;;
51925;SDS011;37952;51.938;15.480;2023-08-21T10:53:53;3.90;;;2.40;;
51925;SDS011;37952;51.938;15.480;2023-08-21T10:56:56;2.10;;;2.00;;
51925;SDS011;37952;51.938;15.480;2023-08-21T10:59:59;2.10;;;2.00;;
51925;SDS011;37952;51.938;15.480;2023-08-21T11:03:06;2.80;;;2.70;;
51925;SDS011;37952;51.938;15.480;2023-08-21T11:06:09;2.10;;;2.00;;
51925;SDS011;37952;51.938;15.480;2023-08-21T11:09:13;2.50;;;2.30;;
51925;SDS011;37952;51.938;15.480;2023-08-21T11:12:20;4.80;;;2.00;;
51925;SDS011;37952;51.938;15.480;2023-08-21T11:15:24;2.20;;;2.10;;
51925;SDS011;37952;51.938;15.480;2023-08-21T11:21:38;1.90;;;1.80;;
51925;SDS011;37952;51.938;15.480;2023-08-21T11:24:41;2.30;;;2.20;;
51925;SDS011;37952;51.938;15.480;2023-08-21T11:27:49;5.30;;;2.10;;
51925;SDS011;37952;51.938;15.480;2023-08-21T11:30:52;2.10;;;2.00;;
51925;SDS011;37952;51.938;15.480;2023-08-21T11:33:55;3.80;;;1.90;;
51925;SDS011;37952;51.938;15.480;2023-08-21T11:36:58;1.90;;;1.80;;
51925;SDS011;37952;51.938;15.480;2023-08-21T11:40:06;1.80;;;1.70;;
51925;SDS011;37952;51.938;15.480;2023-08-21T11:43:09;3.10;;;1.90;;
51925;SDS011;37952;51.938;15.480;2023-08-21T11:46:13;3.40;;;1.90;;
51925;SDS011;37952;51.938;15.480;2023-08-21T11:49:16;2.20;;;2.00;;
51925;SDS011;37952;51.938;15.480;2023-08-21T11:52:21;2.10;;;1.90;;
51925;SDS011;37952;51.938;15.480;2023-08-21T11:55:28;2.40;;;2.20;;
51925;SDS011;37952;51.938;15.480;2023-08-21T11:58:31;2.10;;;2.00;;
51925;SDS011;37952;51.938;15.480;2023-08-21T12:01:34;2.10;;;2.00;;
51925;SDS011;37952;51.938;15.480;2023-08-21T12:04:37;2.00;;;1.90;;
51925;SDS011;37952;51.938;15.480;2023-08-21T12:07:40;2.00;;;1.90;;
51925;SDS011;37952;51.938;15.480;2023-08-21T12:10:43;2.10;;;2.00;;
51925;SDS011;37952;51.938;15.480;2023-08-21T12:13:46;2.20;;;2.00;;
51925;SDS011;37952;51.938;15.480;2023-08-21T12:16:49;2.30;;;2.20;;
51925;SDS011;37952;51.938;15.480;2023-08-21T12:19:52;2.80;;;2.70;;
51925;SDS011;37952;51.938;15.480;2023-08-21T12:22:55;3.20;;;2.10;;
51925;SDS011;37952;51.938;15.480;2023-08-21T12:25:59;2.90;;;2.70;;
51925;SDS011;37952;51.938;15.480;2023-08-21T12:29:02;2.90;;;2.80;;
51925;SDS011;37952;51.938;15.480;2023-08-21T12:32:05;4.10;;;2.70;;
51925;SDS011;37952;51.938;15.480;2023-08-21T12:35:08;2.70;;;2.50;;
51925;SDS011;37952;51.938;15.480;2023-08-21T12:38:14;2.50;;;2.40;;
51925;SDS011;37952;51.938;15.480;2023-08-21T12:41:17;2.70;;;2.50;;
51925;SDS011;37952;51.938;15.480;2023-08-21T12:44:20;3.00;;;2.80;;
51925;SDS011;37952;51.938;15.480;2023-08-21T12:47:22;3.80;;;3.00;;
51925;SDS011;37952;51.938;15.480;2023-08-21T12:50:26;3.10;;;2.80;;
51925;SDS011;37952;51.938;15.480;2023-08-21T12:53:29;3.30;;;3.00;;
51925;SDS011;37952;51.938;15.480;2023-08-21T12:56:31;3.10;;;2.90;;
51925;SDS011;37952;51.938;15.480;2023-08-21T12:59:34;4.80;;;2.90;;
51925;SDS011;37952;51.938;15.480;2023-08-21T13:02:37;3.60;;;3.10;;
51925;SDS011;37952;51.938;15.480;2023-08-21T13:05:41;3.30;;;3.10;;
51925;SDS011;37952;51.938;15.480;2023-08-21T13:08:43;3.30;;;3.10;;
51925;SDS011;37952;51.938;15.480;2023-08-21T13:11:46;6.00;;;3.20;;
51925;SDS011;37952;51.938;15.480;2023-08-21T13:14:49;3.30;;;2.60;;
51925;SDS011;37952;51.938;15.480;2023-08-21T13:17:52;3.70;;;3.40;;
51925;SDS011;37952;51.938;15.480;2023-08-21T13:20:55;5.20;;;3.10;;
51925;SDS011;37952;51.938;15.480;2023-08-21T13:23:57;3.40;;;3.10;;
51925;SDS011;37952;51.938;15.480;2023-08-21T13:27:04;3.30;;;3.00;;
51925;SDS011;37952;51.938;15.480;2023-08-21T13:30:08;18.10;;;3.60;;
51925;SDS011;37952;51.938;15.480;2023-08-21T13:33:13;3.20;;;3.00;;
51925;SDS011;37952;51.938;15.480;2023-08-21T13:36:17;2.70;;;2.60;;
51925;SDS011;37952;51.938;15.480;2023-08-21T13:39:21;3.10;;;2.90;;
51925;SDS011;37952;51.938;15.480;2023-08-21T13:42:24;3.10;;;2.90;;
51925;SDS011;37952;51.938;15.480;2023-08-21T13:45:27;3.30;;;3.00;;
51925;SDS011;37952;51.938;15.480;2023-08-21T13:48:30;3.30;;;3.00;;
51925;SDS011;37952;51.938;15.480;2023-08-21T13:51:34;6.20;;;2.70;;
51925;SDS011;37952;51.938;15.480;2023-08-21T13:54:36;2.90;;;2.70;;
51925;SDS011;37952;51.938;15.480;2023-08-21T13:57:39;2.70;;;2.50;;
51925;SDS011;37952;51.938;15.480;2023-08-21T14:00:43;3.80;;;2.50;;
51925;SDS011;37952;51.938;15.480;2023-08-21T14:03:47;2.60;;;2.20;;
51925;SDS011;37952;51.938;15.480;2023-08-21T14:06:50;3.80;;;2.80;;
51925;SDS011;37952;51.938;15.480;2023-08-21T14:09:52;2.60;;;2.40;;
51925;SDS011;37952;51.938;15.480;2023-08-21T14:12:55;2.50;;;2.40;;
51925;SDS011;37952;51.938;15.480;2023-08-21T14:15:59;2.30;;;2.10;;
51925;SDS011;37952;51.938;15.480;2023-08-21T14:19:02;2.90;;;2.60;;
51925;SDS011;37952;51.938;15.480;2023-08-21T14:22:05;2.20;;;2.00;;
51925;SDS011;37952;51.938;15.480;2023-08-21T14:25:08;2.50;;;2.30;;
51925;SDS011;37952;51.938;15.480;2023-08-21T14:28:11;3.80;;;2.60;;
51925;SDS011;37952;51.938;15.480;2023-08-21T14:31:14;2.90;;;2.80;;
51925;SDS011;37952;51.938;15.480;2023-08-21T14:34:17;2.50;;;2.40;;
51925;SDS011;37952;51.938;15.480;2023-08-21T14:37:20;2.80;;;2.70;;
51925;SDS011;37952;51.938;15.480;2023-08-21T14:40:23;1.70;;;1.60;;
51925;SDS011;37952;51.938;15.480;2023-08-21T14:43:28;2.30;;;1.80;;
51925;SDS011;37952;51.938;15.480;2023-08-21T14:46:34;1.10;;;1.10;;
51925;SDS011;37952;51.938;15.480;2023-08-21T14:49:41;1.80;;;1.30;;
51925;SDS011;37952;51.938;15.480;2023-08-21T14:52:44;1.40;;;1.30;;
51925;SDS011;37952;51.938;15.480;2023-08-21T14:55:47;1.20;;;1.10;;
51925;SDS011;37952;51.938;15.480;2023-08-21T14:58:50;1.40;;;1.40;;
51925;SDS011;37952;51.938;15.480;2023-08-21T15:01:52;4.10;;;1.50;;
51925;SDS011;37952;51.938;15.480;2023-08-21T15:04:58;2.80;;;1.30;;
51925;SDS011;37952;51.938;15.480;2023-08-21T15:08:00;1.30;;;1.20;;
51925;SDS011;37952;51.938;15.480;2023-08-21T15:11:04;1.20;;;1.20;;
51925;SDS011;37952;51.938;15.480;2023-08-21T15:14:10;1.00;;;1.00;;
51925;SDS011;37952;51.938;15.480;2023-08-21T15:17:16;3.00;;;1.70;;
51925;SDS011;37952;51.938;15.480;2023-08-21T15:20:21;1.20;;;1.10;;
51925;SDS011;37952;51.938;15.480;2023-08-21T15:23:24;2.20;;;1.20;;
51925;SDS011;37952;51.938;15.480;2023-08-21T15:26:27;2.40;;;1.50;;
51925;SDS011;37952;51.938;15.480;2023-08-21T15:29:29;2.40;;;1.70;;
51925;SDS011;37952;51.938;15.480;2023-08-21T15:32:33;1.70;;;1.60;;
51925;SDS011;37952;51.938;15.480;2023-08-21T15:35:36;1.70;;;1.60;;
51925;SDS011;37952;51.938;15.480;2023-08-21T15:38:39;1.80;;;1.70;;
51925;SDS011;37952;51.938;15.480;2023-08-21T15:41:42;1.90;;;1.80;;
51925;SDS011;37952;51.938;15.480;2023-08-21T15:44:44;2.00;;;1.90;;
51925;SDS011;37952;51.938;15.480;2023-08-21T15:47:47;2.00;;;1.80;;
51925;SDS011;37952;51.938;15.480;2023-08-21T15:50:53;3.30;;;1.70;;
51925;SDS011;37952;51.938;15.480;2023-08-21T15:53:56;2.30;;;2.10;;
51925;SDS011;37952;51.938;15.480;2023-08-21T15:56:59;1.80;;;1.70;;
51925;SDS011;37952;51.938;15.480;2023-08-21T16:00:02;3.70;;;2.00;;
51925;SDS011;37952;51.938;15.480;2023-08-21T16:03:08;2.80;;;1.70;;
51925;SDS011;37952;51.938;15.480;2023-08-21T16:06:11;2.10;;;2.00;;
51925;SDS011;37952;51.938;15.480;2023-08-21T16:09:14;2.10;;;1.90;;
51925;SDS011;37952;51.938;15.480;2023-08-21T16:12:17;1.90;;;1.80;;
51925;SDS011;37952;51.938;15.480;2023-08-21T16:15:20;2.10;;;2.00;;
51925;SDS011;37952;51.938;15.480;2023-08-21T16:18:23;2.00;;;1.80;;
51925;SDS011;37952;51.938;15.480;2023-08-21T16:21:26;2.10;;;1.90;;
51925;SDS011;37952;51.938;15.480;2023-08-21T16:24:28;3.80;;;1.90;;
51925;SDS011;37952;51.938;15.480;2023-08-21T16:27:32;1.60;;;1.50;;
51925;SDS011;37952;51.938;15.480;2023-08-21T16:30:35;1.90;;;1.80;;
51925;SDS011;37952;51.938;15.480;2023-08-21T16:33:37;1.90;;;1.80;;
51925;SDS011;37952;51.938;15.480;2023-08-21T16:36:40;1.90;;;1.80;;
51925;SDS011;37952;51.938;15.480;2023-08-21T16:39:43;2.00;;;1.90;;
51925;SDS011;37952;51.938;15.480;2023-08-21T16:42:47;1.60;;;1.50;;
51925;SDS011;37952;51.938;15.480;2023-08-21T16:45:50;2.20;;;1.40;;
51925;SDS011;37952;51.938;15.480;2023-08-21T16:48:53;2.90;;;1.30;;
51925;SDS011;37952;51.938;15.480;2023-08-21T16:51:56;1.70;;;1.60;;
51925;SDS011;37952;51.938;15.480;2023-08-21T16:54:59;2.30;;;1.70;;
51925;SDS011;37952;51.938;15.480;2023-08-21T16:58:02;1.40;;;1.30;;
51925;SDS011;37952;51.938;15.480;2023-08-21T17:01:05;1.40;;;1.30;;
51925;SDS011;37952;51.938;15.480;2023-08-21T17:04:08;1.60;;;1.50;;
51925;SDS011;37952;51.938;15.480;2023-08-21T17:07:11;1.30;;;1.20;;
51925;SDS011;37952;51.938;15.480;2023-08-21T17:10:13;2.80;;;1.60;;
51925;SDS011;37952;51.938;15.480;2023-08-21T17:13:16;2.30;;;1.30;;
51925;SDS011;37952;51.938;15.480;2023-08-21T17:16:19;3.90;;;1.20;;
51925;SDS011;37952;51.938;15.480;2023-08-21T17:19:29;1.40;;;1.30;;
51925;SDS011;37952;51.938;15.480;2023-08-21T17:22:32;1.10;;;1.00;;
51925;SDS011;37952;51.938;15.480;2023-08-21T17:25:35;1.10;;;1.00;;
51925;SDS011;37952;51.938;15.480;2023-08-21T17:28:37;1.60;;;1.30;;
51925;SDS011;37952;51.938;15.480;2023-08-21T17:31:40;1.90;;;1.10;;
51925;SDS011;37952;51.938;15.480;2023-08-21T17:34:43;1.20;;;1.00;;
51925;SDS011;37952;51.938;15.480;2023-08-21T17:37:47;1.30;;;1.20;;
51925;SDS011;37952;51.938;15.480;2023-08-21T17:40:49;1.20;;;1.00;;
51925;SDS011;37952;51.938;15.480;2023-08-21T17:43:52;1.40;;;1.20;;
51925;SDS011;37952;51.938;15.480;2023-08-21T17:46:55;1.00;;;1.00;;
51925;SDS011;37952;51.938;15.480;2023-08-21T17:49:58;1.60;;;1.40;;
51925;SDS011;37952;51.938;15.480;2023-08-21T17:53:01;2.20;;;1.10;;
51925;SDS011;37952;51.938;15.480;2023-08-21T17:56:05;3.10;;;1.30;;
51925;SDS011;37952;51.938;15.480;2023-08-21T17:59:09;1.30;;;1.00;;
51925;SDS011;37952;51.938;15.480;2023-08-21T18:02:12;1.10;;;1.00;;
51925;SDS011;37952;51.938;15.480;2023-08-21T18:05:29;1.30;;;1.10;;
51925;SDS011;37952;51.938;15.480;2023-08-21T18:08:33;1.40;;;1.10;;
51925;SDS011;37952;51.938;15.480;2023-08-21T18:11:35;2.00;;;1.20;;
51925;SDS011;37952;51.938;15.480;2023-08-21T18:14:38;1.90;;;1.30;;
51925;SDS011;37952;51.938;15.480;2023-08-21T18:17:41;1.20;;;1.10;;